sensor_id;sensor_type;location;lat;lon;timestamp;temperature;humidity
21770;DHT22;11046;49.558;8.674;2022-12-18T00:00:26;-7.50;97.30
21770;DHT22;11046;49.558;8.674;2022-12-18T00:03:27;-7.50;97.40
21770;DHT22;11046;49.558;8.674;2022-12-18T00:06:29;-7.60;97.40
21770;DHT22;11046;49.558;8.674;2022-12-18T00:09:29;-7.60;97.50
21770;DHT22;11046;49.558;8.674;2022-12-18T00:12:30;-7.50;97.50
21770;DHT22;11046;49.558;8.674;2022-12-18T00:15:36;-7.60;97.40
21770;DHT22;11046;49.558;8.674;2022-12-18T00:18:37;-7.70;97.50
21770;DHT22;11046;49.558;8.674;2022-12-18T00:21:37;-7.70;97.60
21770;DHT22;11046;49.558;8.674;2022-12-18T00:24:38;-7.70;97.70
21770;DHT22;11046;49.558;8.674;2022-12-18T00:27:38;-7.70;97.80
21770;DHT22;11046;49.558;8.674;2022-12-18T00:30:39;-7.70;97.70
21770;DHT22;11046;49.558;8.674;2022-12-18T00:33:42;-7.70;97.70
21770;DHT22;11046;49.558;8.674;2022-12-18T00:36:43;-7.60;97.70
21770;DHT22;11046;49.558;8.674;2022-12-18T00:39:48;-7.60;97.50
21770;DHT22;11046;49.558;8.674;2022-12-18T00:42:48;-7.60;97.60
21770;DHT22;11046;49.558;8.674;2022-12-18T00:45:57;-7.60;97.70
21770;DHT22;11046;49.558;8.674;2022-12-18T00:48:59;-7.60;97.60
21770;DHT22;11046;49.558;8.674;2022-12-18T00:52:00;-7.60;97.50
21770;DHT22;11046;49.558;8.674;2022-12-18T00:55:01;-7.70;97.50
21770;DHT22;11046;49.558;8.674;2022-12-18T00:58:01;-7.80;97.50
21770;DHT22;11046;49.558;8.674;2022-12-18T01:01:04;-7.80;97.50
21770;DHT22;11046;49.558;8.674;2022-12-18T01:04:07;-7.80;97.50
21770;DHT22;11046;49.558;8.674;2022-12-18T01:07:08;-7.80;97.50
21770;DHT22;11046;49.558;8.674;2022-12-18T01:10:12;-7.80;97.60
21770;DHT22;11046;49.558;8.674;2022-12-18T01:13:12;-7.70;97.50
21770;DHT22;11046;49.558;8.674;2022-12-18T01:16:15;-7.70;97.50
21770;DHT22;11046;49.558;8.674;2022-12-18T01:19:16;-7.70;97.40
21770;DHT22;11046;49.558;8.674;2022-12-18T01:22:16;-7.70;97.40
21770;DHT22;11046;49.558;8.674;2022-12-18T01:25:19;-7.80;97.20
21770;DHT22;11046;49.558;8.674;2022-12-18T01:28:19;-7.90;97.10
21770;DHT22;11046;49.558;8.674;2022-12-18T01:31:28;-8.10;97.20
21770;DHT22;11046;49.558;8.674;2022-12-18T01:34:29;-8.10;97.30
21770;DHT22;11046;49.558;8.674;2022-12-18T01:37:29;-8.30;97.40
21770;DHT22;11046;49.558;8.674;2022-12-18T01:40:30;-8.40;97.40
21770;DHT22;11046;49.558;8.674;2022-12-18T01:46:45;-8.50;97.40
21770;DHT22;11046;49.558;8.674;2022-12-18T01:49:45;-8.60;97.40
21770;DHT22;11046;49.558;8.674;2022-12-18T01:52:52;-8.70;97.30
21770;DHT22;11046;49.558;8.674;2022-12-18T01:55:55;-8.70;97.40
21770;DHT22;11046;49.558;8.674;2022-12-18T01:59:01;-8.60;97.30
21770;DHT22;11046;49.558;8.674;2022-12-18T02:02:03;-8.60;97.20
21770;DHT22;11046;49.558;8.674;2022-12-18T02:05:04;-8.70;97.30
21770;DHT22;11046;49.558;8.674;2022-12-18T02:08:40;-8.70;97.30
21770;DHT22;11046;49.558;8.674;2022-12-18T02:15:14;-8.60;97.30
21770;DHT22;11046;49.558;8.674;2022-12-18T02:18:24;-8.60;97.30
21770;DHT22;11046;49.558;8.674;2022-12-18T02:22:01;-8.50;97.70
21770;DHT22;11046;49.558;8.674;2022-12-18T02:25:21;-8.50;97.20
21770;DHT22;11046;49.558;8.674;2022-12-18T02:28:29;-8.40;97.20
21770;DHT22;11046;49.558;8.674;2022-12-18T02:31:39;-8.40;97.10
21770;DHT22;11046;49.558;8.674;2022-12-18T02:34:41;-8.40;97.00
21770;DHT22;11046;49.558;8.674;2022-12-18T02:37:48;-8.40;97.00
21770;DHT22;11046;49.558;8.674;2022-12-18T02:40:49;-8.40;96.90
21770;DHT22;11046;49.558;8.674;2022-12-18T02:44:00;-8.50;97.00
21770;DHT22;11046;49.558;8.674;2022-12-18T02:47:03;-8.70;97.00
21770;DHT22;11046;49.558;8.674;2022-12-18T02:50:11;-8.80;97.00
21770;DHT22;11046;49.558;8.674;2022-12-18T02:53:29;-8.80;97.10
21770;DHT22;11046;49.558;8.674;2022-12-18T02:56:42;-8.90;97.00
21770;DHT22;11046;49.558;8.674;2022-12-18T03:00:07;-8.90;97.10
21770;DHT22;11046;49.558;8.674;2022-12-18T03:03:28;-9.00;97.10
21770;DHT22;11046;49.558;8.674;2022-12-18T03:06:35;-9.00;97.00
21770;DHT22;11046;49.558;8.674;2022-12-18T03:09:44;-9.10;97.00
21770;DHT22;11046;49.558;8.674;2022-12-18T03:12:53;-9.10;97.00
21770;DHT22;11046;49.558;8.674;2022-12-18T03:15:56;-9.00;96.90
21770;DHT22;11046;49.558;8.674;2022-12-18T03:19:08;-9.00;96.90
21770;DHT22;11046;49.558;8.674;2022-12-18T03:22:12;-9.00;96.90
21770;DHT22;11046;49.558;8.674;2022-12-18T03:25:19;-9.00;96.80
21770;DHT22;11046;49.558;8.674;2022-12-18T03:28:22;-9.00;96.90
21770;DHT22;11046;49.558;8.674;2022-12-18T03:31:29;-9.00;96.90
21770;DHT22;11046;49.558;8.674;2022-12-18T03:34:34;-8.90;96.90
21770;DHT22;11046;49.558;8.674;2022-12-18T03:37:40;-8.90;96.80
21770;DHT22;11046;49.558;8.674;2022-12-18T03:41:08;-8.90;96.80
21770;DHT22;11046;49.558;8.674;2022-12-18T03:48:17;-9.10;96.80
21770;DHT22;11046;49.558;8.674;2022-12-18T03:51:33;-9.10;96.90
21770;DHT22;11046;49.558;8.674;2022-12-18T03:54:38;-9.10;96.90
21770;DHT22;11046;49.558;8.674;2022-12-18T03:57:48;-9.20;96.80
21770;DHT22;11046;49.558;8.674;2022-12-18T04:00:50;-9.20;96.80
21770;DHT22;11046;49.558;8.674;2022-12-18T04:03:55;-9.20;96.90
21770;DHT22;11046;49.558;8.674;2022-12-18T04:06:57;-9.10;96.90
21770;DHT22;11046;49.558;8.674;2022-12-18T04:10:01;-9.00;96.80
21770;DHT22;11046;49.558;8.674;2022-12-18T04:13:05;-9.00;96.70
21770;DHT22;11046;49.558;8.674;2022-12-18T04:16:06;-9.00;96.60
21770;DHT22;11046;49.558;8.674;2022-12-18T04:19:07;-9.00;96.70
21770;DHT22;11046;49.558;8.674;2022-12-18T04:22:13;-9.00;96.70
21770;DHT22;11046;49.558;8.674;2022-12-18T04:25:18;-9.10;96.50
21770;DHT22;11046;49.558;8.674;2022-12-18T04:28:29;-9.10;96.80
21770;DHT22;11046;49.558;8.674;2022-12-18T04:31:30;-9.10;96.80
21770;DHT22;11046;49.558;8.674;2022-12-18T04:34:31;-9.10;96.70
21770;DHT22;11046;49.558;8.674;2022-12-18T04:37:32;-9.10;96.70
21770;DHT22;11046;49.558;8.674;2022-12-18T04:40:34;-9.00;96.80
21770;DHT22;11046;49.558;8.674;2022-12-18T04:43:38;-9.00;96.70
21770;DHT22;11046;49.558;8.674;2022-12-18T04:46:39;-8.90;96.70
21770;DHT22;11046;49.558;8.674;2022-12-18T04:49:40;-9.00;96.60
21770;DHT22;11046;49.558;8.674;2022-12-18T04:52:40;-8.90;96.70
21770;DHT22;11046;49.558;8.674;2022-12-18T04:55:41;-8.90;96.70
21770;DHT22;11046;49.558;8.674;2022-12-18T04:58:44;-8.90;96.60
21770;DHT22;11046;49.558;8.674;2022-12-18T05:01:44;-8.90;96.60
21770;DHT22;11046;49.558;8.674;2022-12-18T05:04:46;-8.90;96.50
21770;DHT22;11046;49.558;8.674;2022-12-18T05:07:46;-8.90;96.50
21770;DHT22;11046;49.558;8.674;2022-12-18T05:10:47;-8.90;96.50
21770;DHT22;11046;49.558;8.674;2022-12-18T05:13:47;-9.00;96.50
21770;DHT22;11046;49.558;8.674;2022-12-18T05:16:48;-9.00;96.50
21770;DHT22;11046;49.558;8.674;2022-12-18T05:19:48;-9.00;96.50
21770;DHT22;11046;49.558;8.674;2022-12-18T05:22:50;-9.10;96.50
21770;DHT22;11046;49.558;8.674;2022-12-18T05:25:56;-9.10;96.50
21770;DHT22;11046;49.558;8.674;2022-12-18T05:28:57;-9.10;96.50
21770;DHT22;11046;49.558;8.674;2022-12-18T05:31:58;-9.20;96.40
21770;DHT22;11046;49.558;8.674;2022-12-18T05:34:58;-9.30;96.60
21770;DHT22;11046;49.558;8.674;2022-12-18T05:37:59;-9.30;96.80
21770;DHT22;11046;49.558;8.674;2022-12-18T05:41:00;-9.30;96.90
21770;DHT22;11046;49.558;8.674;2022-12-18T05:44:00;-9.20;96.90
21770;DHT22;11046;49.558;8.674;2022-12-18T05:47:01;-9.10;96.80
21770;DHT22;11046;49.558;8.674;2022-12-18T05:50:01;-9.20;96.80
21770;DHT22;11046;49.558;8.674;2022-12-18T05:53:03;-9.20;96.80
21770;DHT22;11046;49.558;8.674;2022-12-18T05:56:06;-9.10;96.90
21770;DHT22;11046;49.558;8.674;2022-12-18T05:59:07;-9.10;96.80
21770;DHT22;11046;49.558;8.674;2022-12-18T06:02:08;-9.10;96.80
21770;DHT22;11046;49.558;8.674;2022-12-18T06:05:08;-9.10;96.80
21770;DHT22;11046;49.558;8.674;2022-12-18T06:08:09;-9.00;96.80
21770;DHT22;11046;49.558;8.674;2022-12-18T06:11:10;-8.90;96.80
21770;DHT22;11046;49.558;8.674;2022-12-18T06:14:11;-8.80;96.70
21770;DHT22;11046;49.558;8.674;2022-12-18T06:17:12;-8.80;96.70
21770;DHT22;11046;49.558;8.674;2022-12-18T06:20:12;-8.80;96.60
21770;DHT22;11046;49.558;8.674;2022-12-18T06:23:13;-8.80;96.60
21770;DHT22;11046;49.558;8.674;2022-12-18T06:26:14;-8.80;96.60
21770;DHT22;11046;49.558;8.674;2022-12-18T06:29:15;-8.90;96.60
21770;DHT22;11046;49.558;8.674;2022-12-18T06:32:15;-8.90;96.60
21770;DHT22;11046;49.558;8.674;2022-12-18T06:35:16;-8.90;96.60
21770;DHT22;11046;49.558;8.674;2022-12-18T06:38:17;-9.00;96.60
21770;DHT22;11046;49.558;8.674;2022-12-18T06:41:19;-9.10;96.60
21770;DHT22;11046;49.558;8.674;2022-12-18T06:44:20;-9.20;96.70
21770;DHT22;11046;49.558;8.674;2022-12-18T06:47:21;-9.30;96.80
21770;DHT22;11046;49.558;8.674;2022-12-18T06:50:22;-9.30;97.00
21770;DHT22;11046;49.558;8.674;2022-12-18T06:53:22;-9.20;97.00
21770;DHT22;11046;49.558;8.674;2022-12-18T06:56:23;-9.30;97.10
21770;DHT22;11046;49.558;8.674;2022-12-18T06:59:24;-9.30;97.10
21770;DHT22;11046;49.558;8.674;2022-12-18T07:02:24;-9.30;97.10
21770;DHT22;11046;49.558;8.674;2022-12-18T07:05:25;-9.30;97.10
21770;DHT22;11046;49.558;8.674;2022-12-18T07:08:25;-9.30;97.10
21770;DHT22;11046;49.558;8.674;2022-12-18T07:11:26;-9.20;97.10
21770;DHT22;11046;49.558;8.674;2022-12-18T07:14:27;-9.20;97.10
21770;DHT22;11046;49.558;8.674;2022-12-18T07:17:27;-9.10;97.10
21770;DHT22;11046;49.558;8.674;2022-12-18T07:20:28;-9.00;97.10
21770;DHT22;11046;49.558;8.674;2022-12-18T07:23:29;-9.00;97.00
21770;DHT22;11046;49.558;8.674;2022-12-18T07:26:29;-8.90;97.00
21770;DHT22;11046;49.558;8.674;2022-12-18T07:29:30;-8.90;97.10
21770;DHT22;11046;49.558;8.674;2022-12-18T07:32:31;-8.90;97.10
21770;DHT22;11046;49.558;8.674;2022-12-18T07:35:33;-8.90;97.10
21770;DHT22;11046;49.558;8.674;2022-12-18T07:38:34;-9.00;97.10
21770;DHT22;11046;49.558;8.674;2022-12-18T07:41:35;-9.00;97.10
21770;DHT22;11046;49.558;8.674;2022-12-18T07:44:42;-9.00;97.10
21770;DHT22;11046;49.558;8.674;2022-12-18T07:47:43;-9.00;97.00
21770;DHT22;11046;49.558;8.674;2022-12-18T07:50:44;-8.90;97.10
21770;DHT22;11046;49.558;8.674;2022-12-18T07:53:44;-8.90;97.10
21770;DHT22;11046;49.558;8.674;2022-12-18T07:56:45;-8.80;97.10
21770;DHT22;11046;49.558;8.674;2022-12-18T07:59:45;-8.80;97.00
21770;DHT22;11046;49.558;8.674;2022-12-18T08:02:46;-8.80;97.00
21770;DHT22;11046;49.558;8.674;2022-12-18T08:05:46;-8.80;97.00
21770;DHT22;11046;49.558;8.674;2022-12-18T08:08:52;-8.80;96.90
21770;DHT22;11046;49.558;8.674;2022-12-18T08:11:53;-8.80;97.00
21770;DHT22;11046;49.558;8.674;2022-12-18T08:14:53;-8.80;97.00
21770;DHT22;11046;49.558;8.674;2022-12-18T08:17:56;-8.80;97.00
21770;DHT22;11046;49.558;8.674;2022-12-18T08:20:57;-8.80;96.90
21770;DHT22;11046;49.558;8.674;2022-12-18T08:24:00;-8.80;97.00
21770;DHT22;11046;49.558;8.674;2022-12-18T08:27:01;-8.80;97.00
21770;DHT22;11046;49.558;8.674;2022-12-18T08:30:02;-8.80;97.00
21770;DHT22;11046;49.558;8.674;2022-12-18T08:33:03;-8.80;97.00
21770;DHT22;11046;49.558;8.674;2022-12-18T08:36:04;-8.70;97.10
21770;DHT22;11046;49.558;8.674;2022-12-18T08:39:05;-8.60;97.10
21770;DHT22;11046;49.558;8.674;2022-12-18T08:42:05;-8.50;97.00
21770;DHT22;11046;49.558;8.674;2022-12-18T08:45:25;-8.50;97.00
21770;DHT22;11046;49.558;8.674;2022-12-18T08:48:26;-8.50;97.00
21770;DHT22;11046;49.558;8.674;2022-12-18T08:51:27;-8.40;97.10
21770;DHT22;11046;49.558;8.674;2022-12-18T08:54:27;-8.20;97.20
21770;DHT22;11046;49.558;8.674;2022-12-18T08:57:28;-8.10;97.30
21770;DHT22;11046;49.558;8.674;2022-12-18T09:00:29;-7.90;97.30
21770;DHT22;11046;49.558;8.674;2022-12-18T09:03:30;-7.70;97.40
21770;DHT22;11046;49.558;8.674;2022-12-18T09:06:30;-7.50;97.40
21770;DHT22;11046;49.558;8.674;2022-12-18T09:09:31;-7.40;97.50
21770;DHT22;11046;49.558;8.674;2022-12-18T09:12:32;-7.20;97.60
21770;DHT22;11046;49.558;8.674;2022-12-18T09:15:32;-7.00;97.70
21770;DHT22;11046;49.558;8.674;2022-12-18T09:18:33;-6.80;97.70
21770;DHT22;11046;49.558;8.674;2022-12-18T09:21:34;-6.60;97.80
21770;DHT22;11046;49.558;8.674;2022-12-18T09:24:35;-6.30;97.70
21770;DHT22;11046;49.558;8.674;2022-12-18T09:27:36;-6.20;97.60
21770;DHT22;11046;49.558;8.674;2022-12-18T09:30:41;-6.00;97.60
21770;DHT22;11046;49.558;8.674;2022-12-18T09:33:42;-5.90;97.40
21770;DHT22;11046;49.558;8.674;2022-12-18T09:36:43;-5.70;97.40
21770;DHT22;11046;49.558;8.674;2022-12-18T09:39:43;-5.60;97.40
21770;DHT22;11046;49.558;8.674;2022-12-18T09:42:57;-5.40;97.50
21770;DHT22;11046;49.558;8.674;2022-12-18T09:46:05;-5.20;97.50
21770;DHT22;11046;49.558;8.674;2022-12-18T09:49:12;-5.00;97.40
21770;DHT22;11046;49.558;8.674;2022-12-18T09:52:21;-5.00;97.40
21770;DHT22;11046;49.558;8.674;2022-12-18T09:55:34;-4.80;97.40
21770;DHT22;11046;49.558;8.674;2022-12-18T09:58:41;-4.70;97.40
21770;DHT22;11046;49.558;8.674;2022-12-18T10:01:42;-4.60;97.30
21770;DHT22;11046;49.558;8.674;2022-12-18T10:04:43;-4.60;97.40
21770;DHT22;11046;49.558;8.674;2022-12-18T10:14:39;-4.60;97.70
21770;DHT22;11046;49.558;8.674;2022-12-18T10:21:15;-4.60;97.80
21770;DHT22;11046;49.558;8.674;2022-12-18T10:27:28;-4.80;97.80
21770;DHT22;11046;49.558;8.674;2022-12-18T10:30:29;-4.80;97.90
21770;DHT22;11046;49.558;8.674;2022-12-18T10:33:31;-4.80;97.80
21770;DHT22;11046;49.558;8.674;2022-12-18T10:36:32;-4.70;97.80
21770;DHT22;11046;49.558;8.674;2022-12-18T10:39:33;-4.70;97.70
21770;DHT22;11046;49.558;8.674;2022-12-18T10:42:34;-4.60;97.60
21770;DHT22;11046;49.558;8.674;2022-12-18T10:45:34;-4.60;97.40
21770;DHT22;11046;49.558;8.674;2022-12-18T10:51:48;-4.80;97.30
21770;DHT22;11046;49.558;8.674;2022-12-18T10:54:58;-4.90;97.40
21770;DHT22;11046;49.558;8.674;2022-12-18T11:01:19;-4.80;97.40
21770;DHT22;11046;49.558;8.674;2022-12-18T11:04:23;-4.90;97.50
21770;DHT22;11046;49.558;8.674;2022-12-18T11:07:24;-4.90;97.50
21770;DHT22;11046;49.558;8.674;2022-12-18T11:10:31;-4.90;97.70
21770;DHT22;11046;49.558;8.674;2022-12-18T11:13:32;-4.90;97.40
21770;DHT22;11046;49.558;8.674;2022-12-18T11:16:45;-4.80;97.50
21770;DHT22;11046;49.558;8.674;2022-12-18T11:19:53;-4.80;97.50
21770;DHT22;11046;49.558;8.674;2022-12-18T11:22:59;-4.70;97.40
21770;DHT22;11046;49.558;8.674;2022-12-18T11:26:03;-4.80;97.40
21770;DHT22;11046;49.558;8.674;2022-12-18T11:29:10;-4.80;97.30
21770;DHT22;11046;49.558;8.674;2022-12-18T11:32:29;-4.90;97.30
21770;DHT22;11046;49.558;8.674;2022-12-18T11:38:40;-4.80;97.60
21770;DHT22;11046;49.558;8.674;2022-12-18T11:41:49;-4.80;97.50
21770;DHT22;11046;49.558;8.674;2022-12-18T11:48:39;-4.70;97.50
21770;DHT22;11046;49.558;8.674;2022-12-18T11:51:48;-4.60;97.40
21770;DHT22;11046;49.558;8.674;2022-12-18T11:54:55;-4.60;97.40
21770;DHT22;11046;49.558;8.674;2022-12-18T12:08:26;-4.40;97.20
21770;DHT22;11046;49.558;8.674;2022-12-18T12:14:47;-4.40;97.30
21770;DHT22;11046;49.558;8.674;2022-12-18T12:21:59;-4.30;97.30
21770;DHT22;11046;49.558;8.674;2022-12-18T12:32:30;-4.00;97.30
21770;DHT22;11046;49.558;8.674;2022-12-18T12:35:57;-3.90;97.30
21770;DHT22;11046;49.558;8.674;2022-12-18T12:39:01;-3.90;97.20
21770;DHT22;11046;49.558;8.674;2022-12-18T12:42:30;-3.90;97.60
21770;DHT22;11046;49.558;8.674;2022-12-18T12:45:58;-3.80;97.30
21770;DHT22;11046;49.558;8.674;2022-12-18T12:49:08;-3.80;97.30
21770;DHT22;11046;49.558;8.674;2022-12-18T12:52:32;-3.80;97.40
21770;DHT22;11046;49.558;8.674;2022-12-18T12:55:35;-3.80;97.30
21770;DHT22;11046;49.558;8.674;2022-12-18T13:05:54;-3.80;97.20
21770;DHT22;11046;49.558;8.674;2022-12-18T13:08:57;-3.80;97.30
21770;DHT22;11046;49.558;8.674;2022-12-18T13:12:04;-3.80;97.40
21770;DHT22;11046;49.558;8.674;2022-12-18T13:15:33;-3.70;97.40
21770;DHT22;11046;49.558;8.674;2022-12-18T13:18:35;-3.70;97.50
21770;DHT22;11046;49.558;8.674;2022-12-18T13:21:35;-3.60;97.40
21770;DHT22;11046;49.558;8.674;2022-12-18T13:24:36;-3.60;97.30
21770;DHT22;11046;49.558;8.674;2022-12-18T13:30:42;-3.60;97.30
21770;DHT22;11046;49.558;8.674;2022-12-18T13:33:46;-3.60;97.30
21770;DHT22;11046;49.558;8.674;2022-12-18T13:36:48;-3.60;97.30
21770;DHT22;11046;49.558;8.674;2022-12-18T13:39:48;-3.60;97.30
21770;DHT22;11046;49.558;8.674;2022-12-18T13:42:49;-3.70;97.30
21770;DHT22;11046;49.558;8.674;2022-12-18T13:49:59;-3.70;97.50
21770;DHT22;11046;49.558;8.674;2022-12-18T13:53:00;-3.60;97.50
21770;DHT22;11046;49.558;8.674;2022-12-18T13:56:02;-3.70;97.40
21770;DHT22;11046;49.558;8.674;2022-12-18T13:59:17;-3.80;97.50
21770;DHT22;11046;49.558;8.674;2022-12-18T14:02:25;-3.90;97.50
21770;DHT22;11046;49.558;8.674;2022-12-18T14:05:28;-4.00;97.50
21770;DHT22;11046;49.558;8.674;2022-12-18T14:08:37;-4.10;97.50
21770;DHT22;11046;49.558;8.674;2022-12-18T14:11:38;-4.00;97.60
21770;DHT22;11046;49.558;8.674;2022-12-18T14:14:45;-4.00;97.60
21770;DHT22;11046;49.558;8.674;2022-12-18T14:17:47;-4.00;97.50
21770;DHT22;11046;49.558;8.674;2022-12-18T14:20:51;-3.90;97.40
21770;DHT22;11046;49.558;8.674;2022-12-18T14:24:22;-4.00;97.40
21770;DHT22;11046;49.558;8.674;2022-12-18T14:27:25;-4.00;97.40
21770;DHT22;11046;49.558;8.674;2022-12-18T14:30:31;-4.00;97.50
21770;DHT22;11046;49.558;8.674;2022-12-18T14:33:32;-4.00;97.50
21770;DHT22;11046;49.558;8.674;2022-12-18T14:36:33;-3.90;97.40
21770;DHT22;11046;49.558;8.674;2022-12-18T14:39:33;-3.90;97.30
21770;DHT22;11046;49.558;8.674;2022-12-18T14:42:34;-3.90;97.30
21770;DHT22;11046;49.558;8.674;2022-12-18T14:45:40;-3.90;97.20
21770;DHT22;11046;49.558;8.674;2022-12-18T14:48:42;-4.10;97.20
21770;DHT22;11046;49.558;8.674;2022-12-18T14:51:57;-4.10;97.20
21770;DHT22;11046;49.558;8.674;2022-12-18T14:55:17;-4.10;97.20
21770;DHT22;11046;49.558;8.674;2022-12-18T14:58:22;-4.10;97.20
21770;DHT22;11046;49.558;8.674;2022-12-18T15:04:40;-4.30;97.20
21770;DHT22;11046;49.558;8.674;2022-12-18T15:07:51;-4.20;97.20
21770;DHT22;11046;49.558;8.674;2022-12-18T15:10:53;-4.30;97.10
21770;DHT22;11046;49.558;8.674;2022-12-18T15:13:54;-4.30;97.20
21770;DHT22;11046;49.558;8.674;2022-12-18T15:16:55;-4.30;97.30
21770;DHT22;11046;49.558;8.674;2022-12-18T15:20:02;-4.40;97.20
21770;DHT22;11046;49.558;8.674;2022-12-18T15:23:04;-4.40;97.20
21770;DHT22;11046;49.558;8.674;2022-12-18T15:26:07;-4.40;97.30
21770;DHT22;11046;49.558;8.674;2022-12-18T15:29:21;-4.40;97.20
21770;DHT22;11046;49.558;8.674;2022-12-18T15:32:25;-4.50;97.20
21770;DHT22;11046;49.558;8.674;2022-12-18T15:35:26;-4.50;97.20
21770;DHT22;11046;49.558;8.674;2022-12-18T15:38:27;-4.50;97.20
21770;DHT22;11046;49.558;8.674;2022-12-18T15:41:30;-4.60;97.20
21770;DHT22;11046;49.558;8.674;2022-12-18T15:44:32;-4.50;97.20
21770;DHT22;11046;49.558;8.674;2022-12-18T15:47:33;-4.50;97.20
21770;DHT22;11046;49.558;8.674;2022-12-18T15:50:34;-4.50;97.20
21770;DHT22;11046;49.558;8.674;2022-12-18T15:53:35;-4.60;97.20
21770;DHT22;11046;49.558;8.674;2022-12-18T15:56:36;-4.60;97.30
21770;DHT22;11046;49.558;8.674;2022-12-18T15:59:56;-4.60;97.30
21770;DHT22;11046;49.558;8.674;2022-12-18T16:02:59;-4.60;97.30
21770;DHT22;11046;49.558;8.674;2022-12-18T16:06:00;-4.60;97.30
21770;DHT22;11046;49.558;8.674;2022-12-18T16:09:04;-4.60;97.30
21770;DHT22;11046;49.558;8.674;2022-12-18T16:12:08;-4.60;97.20
21770;DHT22;11046;49.558;8.674;2022-12-18T16:15:15;-4.70;97.60
21770;DHT22;11046;49.558;8.674;2022-12-18T16:18:16;-4.70;97.30
21770;DHT22;11046;49.558;8.674;2022-12-18T16:21:17;-4.60;97.60
21770;DHT22;11046;49.558;8.674;2022-12-18T16:24:21;-4.60;97.30
21770;DHT22;11046;49.558;8.674;2022-12-18T16:27:24;-4.60;97.20
21770;DHT22;11046;49.558;8.674;2022-12-18T16:30:28;-4.60;97.20
21770;DHT22;11046;49.558;8.674;2022-12-18T16:33:29;-4.60;97.20
21770;DHT22;11046;49.558;8.674;2022-12-18T16:36:30;-4.50;97.30
21770;DHT22;11046;49.558;8.674;2022-12-18T16:39:32;-4.50;97.30
21770;DHT22;11046;49.558;8.674;2022-12-18T16:42:39;-4.50;97.30
21770;DHT22;11046;49.558;8.674;2022-12-18T16:45:40;-4.50;97.30
21770;DHT22;11046;49.558;8.674;2022-12-18T16:48:41;-4.50;97.30
21770;DHT22;11046;49.558;8.674;2022-12-18T16:51:43;-4.50;97.20
21770;DHT22;11046;49.558;8.674;2022-12-18T16:54:44;-4.50;97.30
21770;DHT22;11046;49.558;8.674;2022-12-18T16:57:45;-4.60;97.40
21770;DHT22;11046;49.558;8.674;2022-12-18T17:00:46;-4.60;97.40
21770;DHT22;11046;49.558;8.674;2022-12-18T17:03:53;-4.60;97.40
21770;DHT22;11046;49.558;8.674;2022-12-18T17:06:56;-4.60;97.50
21770;DHT22;11046;49.558;8.674;2022-12-18T17:09:57;-4.60;97.60
21770;DHT22;11046;49.558;8.674;2022-12-18T17:12:58;-4.60;97.60
21770;DHT22;11046;49.558;8.674;2022-12-18T17:16:08;-4.60;97.60
21770;DHT22;11046;49.558;8.674;2022-12-18T17:19:10;-4.50;97.70
21770;DHT22;11046;49.558;8.674;2022-12-18T17:22:12;-4.50;97.70
21770;DHT22;11046;49.558;8.674;2022-12-18T17:25:14;-4.40;97.70
21770;DHT22;11046;49.558;8.674;2022-12-18T17:28:16;-4.50;97.70
21770;DHT22;11046;49.558;8.674;2022-12-18T17:31:19;-4.30;97.70
21770;DHT22;11046;49.558;8.674;2022-12-18T17:34:21;-4.30;98.10
21770;DHT22;11046;49.558;8.674;2022-12-18T17:37:23;-4.20;97.70
21770;DHT22;11046;49.558;8.674;2022-12-18T17:40:25;-4.20;97.60
21770;DHT22;11046;49.558;8.674;2022-12-18T17:43:26;-4.20;97.60
21770;DHT22;11046;49.558;8.674;2022-12-18T17:46:29;-4.30;97.70
21770;DHT22;11046;49.558;8.674;2022-12-18T17:49:31;-4.30;97.80
21770;DHT22;11046;49.558;8.674;2022-12-18T17:52:32;-4.40;97.80
21770;DHT22;11046;49.558;8.674;2022-12-18T17:55:33;-4.40;97.90
21770;DHT22;11046;49.558;8.674;2022-12-18T17:58:38;-4.50;97.90
21770;DHT22;11046;49.558;8.674;2022-12-18T18:01:40;-4.50;98.40
21770;DHT22;11046;49.558;8.674;2022-12-18T18:04:41;-4.60;98.00
21770;DHT22;11046;49.558;8.674;2022-12-18T18:07:42;-4.60;98.10
21770;DHT22;11046;49.558;8.674;2022-12-18T18:10:44;-4.70;98.10
21770;DHT22;11046;49.558;8.674;2022-12-18T18:13:48;-4.60;98.10
21770;DHT22;11046;49.558;8.674;2022-12-18T18:17:02;-4.60;98.20
21770;DHT22;11046;49.558;8.674;2022-12-18T18:20:05;-4.70;98.10
21770;DHT22;11046;49.558;8.674;2022-12-18T18:23:06;-4.60;98.10
21770;DHT22;11046;49.558;8.674;2022-12-18T18:26:08;-4.60;98.10
21770;DHT22;11046;49.558;8.674;2022-12-18T18:29:16;-4.60;98.10
21770;DHT22;11046;49.558;8.674;2022-12-18T18:32:17;-4.60;98.10
21770;DHT22;11046;49.558;8.674;2022-12-18T18:35:18;-4.50;98.20
21770;DHT22;11046;49.558;8.674;2022-12-18T18:38:19;-4.60;98.10
21770;DHT22;11046;49.558;8.674;2022-12-18T18:41:21;-4.60;98.20
21770;DHT22;11046;49.558;8.674;2022-12-18T18:44:24;-4.60;98.30
21770;DHT22;11046;49.558;8.674;2022-12-18T18:47:28;-4.60;98.30
21770;DHT22;11046;49.558;8.674;2022-12-18T18:50:29;-4.50;98.30
21770;DHT22;11046;49.558;8.674;2022-12-18T18:53:35;-4.50;98.30
21770;DHT22;11046;49.558;8.674;2022-12-18T18:56:36;-4.40;98.30
21770;DHT22;11046;49.558;8.674;2022-12-18T18:59:38;-4.40;98.30
21770;DHT22;11046;49.558;8.674;2022-12-18T19:02:39;-4.30;98.20
21770;DHT22;11046;49.558;8.674;2022-12-18T19:05:40;-4.20;98.20
21770;DHT22;11046;49.558;8.674;2022-12-18T19:08:41;-4.20;98.10
21770;DHT22;11046;49.558;8.674;2022-12-18T19:11:41;-4.20;98.10
21770;DHT22;11046;49.558;8.674;2022-12-18T19:15:04;-4.30;98.10
21770;DHT22;11046;49.558;8.674;2022-12-18T19:18:06;-4.30;98.20
21770;DHT22;11046;49.558;8.674;2022-12-18T19:21:08;-4.30;98.20
21770;DHT22;11046;49.558;8.674;2022-12-18T19:24:10;-4.40;98.30
21770;DHT22;11046;49.558;8.674;2022-12-18T19:27:11;-4.40;98.30
21770;DHT22;11046;49.558;8.674;2022-12-18T19:30:13;-4.40;98.30
21770;DHT22;11046;49.558;8.674;2022-12-18T19:33:14;-4.40;98.30
21770;DHT22;11046;49.558;8.674;2022-12-18T19:36:17;-4.40;98.30
21770;DHT22;11046;49.558;8.674;2022-12-18T19:39:20;-4.30;98.30
21770;DHT22;11046;49.558;8.674;2022-12-18T19:42:22;-4.30;98.60
21770;DHT22;11046;49.558;8.674;2022-12-18T19:45:23;-4.30;98.30
21770;DHT22;11046;49.558;8.674;2022-12-18T19:48:27;-4.30;98.40
21770;DHT22;11046;49.558;8.674;2022-12-18T19:51:30;-4.30;98.50
21770;DHT22;11046;49.558;8.674;2022-12-18T19:54:32;-4.30;98.40
21770;DHT22;11046;49.558;8.674;2022-12-18T19:57:33;-4.20;98.40
21770;DHT22;11046;49.558;8.674;2022-12-18T20:00:35;-4.20;98.40
21770;DHT22;11046;49.558;8.674;2022-12-18T20:03:36;-4.20;98.50
21770;DHT22;11046;49.558;8.674;2022-12-18T20:06:52;-4.20;98.50
21770;DHT22;11046;49.558;8.674;2022-12-18T20:09:53;-4.20;98.40
21770;DHT22;11046;49.558;8.674;2022-12-18T20:12:54;-4.20;98.40
21770;DHT22;11046;49.558;8.674;2022-12-18T20:15:55;-4.10;98.40
21770;DHT22;11046;49.558;8.674;2022-12-18T20:18:56;-4.20;98.40
21770;DHT22;11046;49.558;8.674;2022-12-18T20:21:58;-4.20;98.50
21770;DHT22;11046;49.558;8.674;2022-12-18T20:24:59;-4.20;98.60
21770;DHT22;11046;49.558;8.674;2022-12-18T20:28:00;-4.30;98.60
21770;DHT22;11046;49.558;8.674;2022-12-18T20:31:02;-4.20;98.70
21770;DHT22;11046;49.558;8.674;2022-12-18T20:34:04;-4.20;98.60
21770;DHT22;11046;49.558;8.674;2022-12-18T20:37:05;-4.20;98.50
21770;DHT22;11046;49.558;8.674;2022-12-18T20:40:06;-4.10;98.40